This is the latest recevied weather packets stored in our database for station/object KB5SMY. If no packets are shown the sender has not sent any weather packets the latest 10 day(s).
| Time | Temp. | Humidity | Pressure | Rain* | Wind** | Luminosity | Snow |
|---|---|---|---|---|---|---|---|
| 1778033404 | 22.22° C | 67% | 1006.8 hPa | 0 mm | - | 0 W/m² | - |
| 1778031004 | 22.78° C | 65% | 1005.9 hPa | 0 mm | - | 0 W/m² | - |
| 1778028605 | 24.44° C | 62% | 1005.4 hPa | 0 mm | - | 39 W/m² | - |
| 1778025004 | 28.33° C | 57% | 1004.6 hPa | 0 mm | - | 134 W/m² | - |
| 1778015405 | 33.89° C | 41% | 1003.5 hPa | 0 mm | - | 673 W/m² | - |
| 1778013132 | 33.89° C | 44% | 1004.2 hPa | 0 mm | - | 916 W/m² | - |
| 1778011805 | 33.33° C | 44% | 1004.4 hPa | 0 mm | - | 559 W/m² | - |
| 1778008204 | 31.67° C | 52% | 1004.7 hPa | 0 mm | - | 926 W/m² | - |
| 1777994404 | 26.11° C | 72% | 1005.5 hPa | 0 mm | - | 499 W/m² | - |
| 1777992604 | 24.44° C | 77% | 1005.6 hPa | 0 mm | - | 413 W/m² | - |
| 1777992132 | 24.44° C | 78% | 1005.5 hPa | 0 mm | - | 418 W/m² | - |
| 1777989005 | 22.78° C | 83% | 1005.2 hPa | 0 mm | - | 320 W/m² | - |
| 1777987804 | 22.22° C | 84% | 1005.2 hPa | 0 mm | - | 185 W/m² | - |
| 1777986604 | 21.67° C | 84% | 1004.9 hPa | 0 mm | - | 250 W/m² | - |
| 1777986004 | 21.67° C | 85% | 1005 hPa | 0 mm | - | 132 W/m² | - |
| 1777984204 | 21.11° C | 85% | 1004.8 hPa | 0 mm | - | 63 W/m² | - |
| 1777983005 | 21.11° C | 85% | 1004.4 hPa | 0 mm | - | 28 W/m² | - |
| 1777981805 | 21.11° C | 85% | 1004.2 hPa | 0 mm | - | 5 W/m² | - |
| 1777980004 | 21.11° C | 85% | 1004.1 hPa | 0 mm | - | 0 W/m² | - |
| 1777977605 | 21.11° C | 84% | 1004 hPa | 0 mm | - | 0 W/m² | - |
| 1777977004 | 21.11° C | 84% | 1003.8 hPa | 0 mm | - | 0 W/m² | - |
| 1777974605 | 21.11° C | 83% | 1004.2 hPa | 0 mm | - | 0 W/m² | - |
| 1777973404 | 21.11° C | 83% | 1004.2 hPa | 0 mm | - | 0 W/m² | - |
| 1777965004 | 22.78° C | 75% | 1005.3 hPa | 0 mm | - | 0 W/m² | - |
| 1777964404 | 22.78° C | 75% | 1005.4 hPa | 0 mm | - | 0 W/m² | - |
* Rain latest hour (hover to see other rain measurements)
** Current wind speed in m/s (hover to see current wind gust speed)